Time;durP1;ratioP1;P1;durP2;ratioP2;P2;SDS_P1;SDS_P2;PMS_P1;PMS_P2;Temp;Humidity;BMP_temperature;BMP_pressure;BME280_temperature;BME280_humidity;BME280_pressure;Samples;Min_cycle;Max_cycle;Signal;HPM_P1;HPM_P2
2023/01/21 00:02:11;;;;;;;61.53;46.67;;;;;;;-0.81;97.50;102402.84;5100496;28;20420;-60
2023/01/21 00:04:39;;;;;;;61.87;46.77;;;;;;;-0.92;97.41;102413.19;5102759;28;20016;-59
2023/01/21 00:07:06;;;;;;;61.30;45.33;;;;;;;-0.93;97.34;102406.22;5100766;28;20028;-59
2023/01/21 00:09:31;;;;;;;64.20;46.80;;;;;;;-0.97;96.90;102412.28;5090651;28;20386;-60
2023/01/21 00:11:57;;;;;;;61.67;48.00;;;;;;;-1.05;96.70;102415.69;5091197;28;20027;-59
2023/01/21 00:14:23;;;;;;;59.50;46.67;;;;;;;-0.98;98.22;102420.09;5111571;28;20035;-60
2023/01/21 00:16:48;;;;;;;65.63;48.43;;;;;;;-1.03;97.77;102427.00;5096262;28;20047;-60
2023/01/21 00:19:14;;;;;;;58.87;45.60;;;;;;;-1.07;98.08;102430.44;5115018;28;20019;-60
2023/01/21 00:21:39;;;;;;;63.03;47.40;;;;;;;-1.06;98.46;102438.31;5114813;28;20020;-60
2023/01/21 00:24:05;;;;;;;61.03;45.87;;;;;;;-1.05;97.83;102441.78;5112346;28;20026;-60
2023/01/21 00:26:30;;;;;;;64.53;48.70;;;;;;;-1.11;97.46;102437.38;5109123;28;20110;-61
2023/01/21 00:28:56;;;;;;;64.03;46.73;;;;;;;-1.07;97.68;102446.13;5114669;28;20035;-60
2023/01/21 00:31:24;;;;;;;65.17;48.63;;;;;;;-1.10;98.07;102440.84;5107429;28;20106;-60
2023/01/21 00:33:49;;;;;;;62.97;48.30;;;;;;;-1.22;98.35;102433.78;5095164;28;20020;-60
2023/01/21 00:36:17;;;;;;;69.50;49.00;;;;;;;-1.16;97.85;102445.16;5108277;28;20023;-60
2023/01/21 00:38:47;;;;;;;61.93;48.30;;;;;;;-1.19;97.81;102455.56;5092798;28;20490;-60
2023/01/21 00:41:13;;;;;;;61.53;47.72;;;;;;;-1.16;98.20;102447.75;5099653;28;20106;-60
2023/01/21 00:43:40;;;;;;;65.10;50.47;;;;;;;-1.14;98.38;102450.41;5113981;28;20103;-60
2023/01/21 00:46:06;;;;;;;59.47;47.43;;;;;;;-1.15;98.42;102446.00;5109415;28;20524;-60
2023/01/21 00:48:32;;;;;;;62.13;49.37;;;;;;;-1.19;97.87;102457.28;5094662;28;20032;-60
2023/01/21 00:50:59;;;;;;;66.03;49.43;;;;;;;-1.27;98.01;102464.16;5094743;28;20108;-60
2023/01/21 00:53:33;;;;;;;62.73;49.40;;;;;;;-1.26;97.71;102468.53;5076247;28;20051;-60
2023/01/21 00:56:04;;;;;;;63.93;49.27;;;;;;;-1.26;98.67;102464.19;5078653;28;20556;-60
2023/01/21 00:58:30;;;;;;;66.20;51.03;;;;;;;-1.33;98.69;102477.13;5088913;28;20490;-61
2023/01/21 01:01:04;;;;;;;63.77;50.67;;;;;;;-1.32;97.83;102487.59;5076304;28;20052;-60
2023/01/21 01:03:31;;;;;;;62.63;48.17;;;;;;;-1.35;98.19;102497.09;5094236;28;20032;-60
2023/01/21 01:06:09;;;;;;;61.77;49.43;;;;;;;-1.34;98.26;102480.59;5094901;28;20028;-60
2023/01/21 01:08:34;;;;;;;64.07;48.93;;;;;;;-1.48;98.27;102483.91;5093846;28;20032;-60
2023/01/21 01:11:00;;;;;;;63.17;48.43;;;;;;;-1.30;98.56;102501.53;5094711;28;20028;-60
2023/01/21 01:13:26;;;;;;;65.20;50.33;;;;;;;-1.41;97.54;102509.22;5079174;28;20120;-60
2023/01/21 01:15:54;;;;;;;67.80;49.97;;;;;;;-1.41;98.76;102513.59;5094243;28;20028;-60
2023/01/21 01:18:23;;;;;;;66.03;51.43;;;;;;;-1.41;97.97;102513.59;5094359;28;20032;-60
2023/01/21 01:20:49;;;;;;;67.23;51.60;;;;;;;-1.39;98.70;102519.69;5094266;28;20455;-60
2023/01/21 01:23:16;;;;;;;68.47;52.77;;;;;;;-1.44;98.11;102518.72;5092601;28;20170;-60
2023/01/21 01:25:42;;;;;;;66.83;51.73;;;;;;;-1.42;98.41;102532.69;5093580;28;20028;-60
2023/01/21 01:28:07;;;;;;;73.77;53.80;;;;;;;-1.45;98.79;102543.06;5093977;28;20035;-61
2023/01/21 01:30:38;;;;;;;70.30;54.00;;;;;;;-1.39;98.63;102545.78;5094327;28;20054;-60
2023/01/21 01:33:03;;;;;;;;;;;;;;;-1.34;97.98;102551.06;5096665;28;20103;-60
2023/01/21 01:35:28;;;;;;;73.00;55.00;;;;;;;-1.43;98.23;102554.44;5114169;28;20002;-60
2023/01/21 01:37:54;;;;;;;73.23;52.47;;;;;;;-1.53;98.39;102543.00;5114054;28;20394;-60
2023/01/21 01:40:19;;;;;;;70.47;53.50;;;;;;;-1.42;98.47;102558.78;5111543;28;20482;-61
2023/01/21 01:42:45;;;;;;;72.60;55.53;;;;;;;-1.39;98.55;102567.50;5102571;28;20027;-60
2023/01/21 01:45:16;;;;;;;74.97;54.33;;;;;;;-1.38;98.76;102564.06;5113868;28;20454;-60
2023/01/21 01:47:46;;;;;;;77.90;55.13;;;;;;;-1.46;99.34;102572.66;5107554;28;20061;-61
2023/01/21 01:50:16;;;;;;;73.83;53.47;;;;;;;-1.51;98.16;102563.88;5113820;28;20103;-60
2023/01/21 01:52:43;;;;;;;74.07;54.90;;;;;;;-1.54;98.29;102566.44;5088878;28;20437;-60
2023/01/21 01:55:11;;;;;;;77.30;55.87;;;;;;;-1.54;99.09;102559.47;5105954;28;20025;-60
2023/01/21 01:57:40;;;;;;;76.27;57.77;;;;;;;-1.50;99.27;102583.88;5102217;28;20047;-60
2023/01/21 02:00:10;;;;;;;79.33;57.93;;;;;;;-1.51;98.33;102587.34;5095484;28;20044;-60
2023/01/21 02:02:38;;;;;;;75.03;55.65;;;;;;;-1.54;98.89;102588.19;5079776;28;20082;-60
2023/01/21 02:05:07;;;;;;;78.67;58.60;;;;;;;-1.51;98.80;102590.84;5104226;28;20102;-61
2023/01/21 02:07:38;;;;;;;75.47;56.90;;;;;;;-1.49;99.57;102596.09;5104519;28;20027;-60
2023/01/21 02:10:06;;;;;;;81.87;58.77;;;;;;;-1.54;99.36;102593.41;5103229;28;20028;-60
2023/01/21 02:12:32;;;;;;;81.67;60.53;;;;;;;-1.62;98.81;102589.78;5093101;28;20237;-60
2023/01/21 02:14:58;;;;;;;78.40;59.50;;;;;;;-1.51;99.17;102596.03;5093247;28;20024;-60
2023/01/21 02:17:26;;;;;;;83.77;57.83;;;;;;;-1.57;99.56;102602.91;5093222;28;20093;-60
2023/01/21 02:19:55;;;;;;;79.37;58.27;;;;;;;-1.63;99.36;102603.69;5092754;28;20026;-60
2023/01/21 02:22:49;;;;;;;78.70;59.70;;;;;;;-1.60;99.41;102611.56;5085612;28;20119;-60
2023/01/21 02:25:32;;;;;;;88.03;63.40;;;;;;;-1.57;99.45;102624.66;5100275;28;20019;-60
2023/01/21 02:28:28;;;;;;;82.73;60.97;;;;;;;-1.55;99.36;102627.31;5095221;28;20450;-60
2023/01/21 02:31:27;;;;;;;85.03;63.63;;;;;;;-1.57;99.22;102624.66;5113113;28;20553;-60
2023/01/21 02:34:09;;;;;;;88.83;64.33;;;;;;;-1.72;98.86;102617.47;5094190;28;20479;-60
2023/01/21 02:37:11;;;;;;;84.87;63.00;;;;;;;-1.62;99.35;102623.69;5112167;28;20024;-60
2023/01/21 02:39:58;;;;;;;86.20;62.40;;;;;;;-1.66;99.84;102619.28;5089438;28;20027;-60
2023/01/21 02:42:50;;;;;;;86.47;63.87;;;;;;;-1.67;99.42;102630.59;5097677;28;20554;-60
2023/01/21 02:45:38;;;;;;;91.57;66.23;;;;;;;-1.62;99.63;102634.13;5091228;28;20036;-60
2023/01/21 02:48:13;;;;;;;83.47;63.90;;;;;;;-1.64;99.09;102628.91;5101684;28;20073;-60
2023/01/21 02:50:56;;;;;;;91.63;67.17;;;;;;;-1.64;98.96;102638.47;5112803;28;20046;-60
2023/01/21 02:53:27;;;;;;;86.40;66.40;;;;;;;-1.70;99.25;102646.19;5111739;28;20096;-60
2023/01/21 02:55:54;;;;;;;88.37;65.10;;;;;;;-1.66;98.75;102640.16;5093066;28;20077;-60
2023/01/21 02:58:29;;;;;;;89.70;66.40;;;;;;;-1.67;99.33;102657.53;5111324;28;20542;-60
2023/01/21 03:01:10;;;;;;;94.57;68.63;;;;;;;-1.71;99.37;102657.47;5094528;28;20047;-60
2023/01/21 03:04:24;;;;;;;92.85;68.22;;;;;;;-1.74;100.00;102654.78;5110477;28;20026;-60
2023/01/21 03:06:52;;;;;;;94.27;68.30;;;;;;;-1.81;99.86;102652.94;5095905;28;20081;-60
2023/01/21 03:09:24;;;;;;;92.30;68.07;;;;;;;-1.77;100.00;102655.63;5085822;28;20036;-60
2023/01/21 03:12:08;;;;;;;90.17;68.53;;;;;;;-1.68;99.64;102655.78;5096606;28;20065;-60
2023/01/21 03:17:36;;;;;;;93.33;69.37;;;;;;;-1.70;99.49;102662.72;5099659;28;20394;-60
2023/01/21 03:20:07;;;;;;;95.57;68.73;;;;;;;-1.75;99.44;102671.31;5094115;28;20031;-60
2023/01/21 03:22:35;;;;;;;92.43;65.53;;;;;;;-1.76;99.39;102659.13;5112433;28;20368;-60
2023/01/21 03:25:03;;;;;;;93.00;67.00;;;;;;;-1.81;99.81;102668.59;5111801;28;20028;-61
2023/01/21 03:27:30;;;;;;;93.87;68.07;;;;;;;-1.78;99.49;102664.31;5088535;28;20020;-60
2023/01/21 03:30:01;;;;;;;91.80;66.53;;;;;;;-1.85;100.00;102668.53;5110453;28;20026;-60
2023/01/21 03:32:30;;;;;;;96.07;68.57;;;;;;;-1.82;100.00;102670.34;5093975;28;20057;-60
2023/01/21 03:34:56;;;;;;;90.67;65.27;;;;;;;-1.86;100.00;102677.19;5110290;28;20028;-60
2023/01/21 03:37:42;;;;;;;92.40;66.23;;;;;;;-1.81;100.00;102677.28;5110704;28;20028;-59
2023/01/21 03:40:40;;;;;;;85.97;63.93;;;;;;;-1.82;100.00;102678.16;5089768;28;20062;-59
2023/01/21 03:43:06;;;;;;;88.27;64.10;;;;;;;-1.89;99.75;102682.34;5110267;28;20031;-60
2023/01/21 03:45:44;;;;;;;93.90;64.60;;;;;;;-1.88;100.00;102686.75;5111198;28;20035;-60
2023/01/21 03:48:19;;;;;;;87.07;63.90;;;;;;;-2.03;99.93;102673.41;5111179;28;20499;-60
2023/01/21 03:50:55;;;;;;;83.70;62.20;;;;;;;-1.96;99.47;102690.06;5112259;28;20031;-60
2023/01/21 03:53:21;;;;;;;85.20;61.93;;;;;;;-1.95;99.75;102695.28;5115786;28;20527;-59
2023/01/21 03:55:49;;;;;;;88.93;62.20;;;;;;;-1.98;99.63;102699.56;5115265;28;20149;-60
2023/01/21 03:58:14;;;;;;;87.60;61.43;;;;;;;-2.01;99.02;102687.34;5098418;28;20039;-60
2023/01/21 04:00:39;;;;;;;80.73;60.87;;;;;;;-2.01;99.84;102704.72;5114538;28;20052;-59
2023/01/21 04:03:05;;;;;;;83.13;60.27;;;;;;;-1.97;100.00;102707.44;5115548;28;20690;-59
2023/01/21 04:05:34;;;;;;;84.90;60.40;;;;;;;-1.97;99.92;102706.53;5097152;28;20114;-59
2023/01/21 04:07:59;;;;;;;81.37;60.17;;;;;;;-2.02;99.98;102703.84;5096354;28;20106;-60
2023/01/21 04:10:25;;;;;;;87.60;60.70;;;;;;;-2.12;100.00;102689.78;5080509;28;20110;-59
2023/01/21 04:12:52;;;;;;;81.63;58.93;;;;;;;-2.01;100.00;102707.34;5115306;28;20062;-59
2023/01/21 04:15:18;;;;;;;84.10;61.17;;;;;;;-2.11;100.00;102707.16;5114133;28;20055;-59
2023/01/21 04:17:43;;;;;;;84.27;59.80;;;;;;;-2.14;99.94;102711.44;5115248;28;20444;-59
2023/01/21 04:20:09;;;;;;;83.30;59.97;;;;;;;-2.06;100.00;102712.44;5115646;28;20054;-60
2023/01/21 04:22:35;;;;;;;83.67;59.90;;;;;;;-2.09;100.00;102718.50;5096906;28;20031;-60
2023/01/21 04:25:00;;;;;;;83.10;60.20;;;;;;;-2.02;100.00;102723.84;5078789;28;20590;-59
2023/01/21 04:27:28;;;;;;;83.37;59.80;;;;;;;-2.15;100.00;102726.19;5107778;28;20440;-59
2023/01/21 04:29:53;;;;;;;80.37;56.77;;;;;;;-2.07;99.95;102729.81;5115093;28;20032;-59
2023/01/21 04:32:21;;;;;;;75.77;57.60;;;;;;;-2.09;100.00;102730.63;5096535;28;20047;-59
2023/01/21 04:34:48;;;;;;;79.37;56.17;;;;;;;-2.10;100.00;102724.56;5113405;28;20038;-59
2023/01/21 04:37:14;;;;;;;78.53;56.63;;;;;;;-2.03;100.00;102732.50;5077811;28;20031;-59
2023/01/21 04:39:39;;;;;;;83.87;59.00;;;;;;;-2.08;100.00;102725.47;5094371;28;20073;-60
2023/01/21 04:42:08;;;;;;;79.33;57.37;;;;;;;-2.10;100.00;102727.16;5100900;28;20023;-59
2023/01/21 04:44:33;;;;;;;80.93;58.30;;;;;;;-2.08;99.83;102729.81;5114721;28;20027;-60
2023/01/21 04:46:59;;;;;;;82.43;57.37;;;;;;;-2.12;100.00;102728.88;5106010;28;20179;-60
2023/01/21 04:49:24;;;;;;;79.53;57.63;;;;;;;-2.10;100.00;102734.09;5076695;28;20088;-60
2023/01/21 04:51:52;;;;;;;77.53;57.43;;;;;;;-2.13;100.00;102747.94;5108248;28;20027;-60
2023/01/21 04:54:17;;;;;;;79.23;57.23;;;;;;;-2.14;100.00;102740.13;5092765;28;20476;-60
2023/01/21 04:56:43;;;;;;;79.60;55.97;;;;;;;-2.24;99.83;102744.25;5085491;28;20024;-60
2023/01/21 04:59:10;;;;;;;82.57;56.77;;;;;;;-2.26;100.00;102748.56;5104058;28;20474;-59
2023/01/21 05:01:35;;;;;;;78.50;56.27;;;;;;;-2.15;100.00;102748.75;5113466;28;20044;-59
2023/01/21 05:04:00;;;;;;;77.33;56.93;;;;;;;-2.17;100.00;102747.88;5096896;28;20026;-60
2023/01/21 05:06:26;;;;;;;78.63;56.27;;;;;;;-2.22;100.00;102745.16;5075446;28;20471;-59
2023/01/21 05:08:51;;;;;;;80.50;57.37;;;;;;;-2.21;100.00;102754.72;5092787;28;20028;-60
2023/01/21 05:11:18;;;;;;;81.67;57.77;;;;;;;-2.26;100.00;102739.84;5097945;28;20016;-60
2023/01/21 05:13:44;;;;;;;79.27;56.73;;;;;;;-2.20;99.74;102761.72;5081256;28;20031;-60
2023/01/21 05:16:09;;;;;;;78.13;55.20;;;;;;;-2.26;99.69;102768.50;5090202;28;20024;-60
2023/01/21 05:18:36;;;;;;;76.93;55.27;;;;;;;-2.31;99.72;102771.03;5095099;28;20100;-60
2023/01/21 05:21:01;;;;;;;78.77;55.00;;;;;;;-2.32;100.00;102774.50;5113486;28;20023;-60
2023/01/21 05:23:29;;;;;;;81.70;54.97;;;;;;;-2.34;100.00;102769.25;5113211;28;20024;-60
2023/01/21 05:25:54;;;;;;;78.23;56.97;;;;;;;-2.38;100.00;102777.84;5113431;28;20027;-60
2023/01/21 05:28:20;;;;;;;81.80;56.93;;;;;;;-2.30;100.00;102781.47;5108147;28;20036;-60
2023/01/21 05:30:45;;;;;;;80.73;56.67;;;;;;;-2.32;100.00;102780.59;5094108;28;20399;-60
2023/01/21 05:33:11;;;;;;;73.43;54.93;;;;;;;-2.36;100.00;102777.88;5113150;28;20024;-60
2023/01/21 05:35:36;;;;;;;74.43;55.10;;;;;;;-2.37;100.00;102778.72;5113053;28;20424;-60
2023/01/21 05:38:02;;;;;;;70.90;54.17;;;;;;;-2.37;99.74;102784.81;5113124;28;20027;-60
2023/01/21 05:40:27;;;;;;;75.07;54.03;;;;;;;-2.45;100.00;102780.28;5094479;28;20079;-60
2023/01/21 05:42:53;;;;;;;79.13;57.17;;;;;;;-2.34;100.00;102797.03;5112865;28;20047;-59
2023/01/21 05:45:18;;;;;;;75.03;54.30;;;;;;;-2.38;100.00;102792.56;5107778;28;20036;-60
2023/01/21 05:47:44;;;;;;;79.17;54.70;;;;;;;-2.35;100.00;102787.47;5092664;28;20035;-59
2023/01/21 05:50:10;;;;;;;79.13;55.30;;;;;;;-2.35;100.00;102803.09;5095952;28;20032;-60
2023/01/21 05:52:36;;;;;;;77.77;54.90;;;;;;;-2.36;100.00;102810.00;5101809;28;20027;-60
2023/01/21 05:55:03;;;;;;;77.47;52.80;;;;;;;-2.29;100.00;102803.22;5080973;28;20393;-61
2023/01/21 05:57:31;;;;;;;76.93;53.73;;;;;;;-2.35;100.00;102797.88;5101660;28;20084;-61
2023/01/21 05:59:57;;;;;;;81.43;56.27;;;;;;;-2.32;100.00;102813.59;5049194;28;1300154;-60
2023/01/21 06:02:23;;;;;;;76.47;55.10;;;;;;;-2.34;100.00;102810.06;5103259;28;20034;-61
2023/01/21 06:04:48;;;;;;;80.23;56.17;;;;;;;-2.44;100.00;102808.97;5103984;28;20614;-61
2023/01/21 06:07:13;;;;;;;78.37;53.23;;;;;;;-2.44;100.00;102811.59;5111917;28;20024;-60
2023/01/21 06:09:41;;;;;;;81.20;54.97;;;;;;;-2.35;100.00;102817.00;5097234;28;20040;-60
2023/01/21 06:12:07;;;;;;;79.23;54.77;;;;;;;-2.44;100.00;102808.06;5110871;28;20566;-61
2023/01/21 06:14:32;;;;;;;76.03;52.97;;;;;;;-2.43;100.00;102828.09;5108440;28;20030;-60
2023/01/21 06:17:00;;;;;;;79.07;56.07;;;;;;;-2.44;100.00;102813.28;5093392;28;20036;-60
2023/01/21 06:19:25;;;;;;;76.10;54.27;;;;;;;-2.46;100.00;102828.03;5081438;28;20019;-60
2023/01/21 06:21:51;;;;;;;80.53;57.07;;;;;;;-2.52;100.00;102821.81;5111835;28;20073;-60
2023/01/21 06:24:16;;;;;;;78.97;54.03;;;;;;;-2.59;100.00;102830.34;5112699;28;20089;-60
2023/01/21 06:26:42;;;;;;;75.80;52.70;;;;;;;-2.59;99.74;102835.56;5108892;28;20034;-60
2023/01/21 06:29:07;;;;;;;73.90;53.77;;;;;;;-2.61;99.57;102836.38;5110431;28;20114;-60
2023/01/21 06:31:33;;;;;;;70.03;51.77;;;;;;;-2.62;100.00;102839.78;5110915;28;20050;-61
2023/01/21 06:33:58;;;;;;;79.83;53.37;;;;;;;-2.72;99.86;102841.31;5110258;28;20062;-60
2023/01/21 06:36:23;;;;;;;73.47;53.03;;;;;;;-2.66;99.50;102851.88;5097633;28;20028;-61
2023/01/21 06:38:49;;;;;;;78.47;52.97;;;;;;;-2.65;99.84;102852.75;5091983;28;20024;-60
2023/01/21 06:41:14;;;;;;;75.33;53.60;;;;;;;-2.69;99.80;102859.63;5109543;28;20031;-60
2023/01/21 06:43:39;;;;;;;74.20;52.60;;;;;;;-2.66;99.53;102862.28;5112967;28;20051;-61
2023/01/21 06:46:05;;;;;;;75.87;52.77;;;;;;;-2.68;99.82;102868.31;5112928;28;20031;-61
2023/01/21 06:48:30;;;;;;;73.53;52.63;;;;;;;-2.64;99.38;102870.16;5112765;28;20053;-60
2023/01/21 06:50:59;;;;;;;75.70;54.00;;;;;;;-2.66;99.26;102871.84;5113077;28;20116;-60
2023/01/21 06:53:25;;;;;;;74.00;50.23;;;;;;;-2.82;98.71;102857.56;5083775;28;20059;-60
2023/01/21 06:55:50;;;;;;;73.73;52.67;;;;;;;-2.68;98.80;102876.13;5112278;28;20104;-60
2023/01/21 06:58:15;;;;;;;70.03;51.73;;;;;;;-2.71;98.29;102876.91;5112740;28;20584;-61
2023/01/21 07:00:41;;;;;;;71.97;52.37;;;;;;;-2.79;98.58;102876.75;5094298;28;20048;-60
2023/01/21 07:03:06;;;;;;;77.80;52.27;;;;;;;-2.83;98.46;102879.22;5094471;28;20484;-60
2023/01/21 07:05:32;;;;;;;75.60;53.17;;;;;;;-2.82;98.53;102881.00;5077410;28;20140;-60
2023/01/21 07:07:58;;;;;;;71.40;51.30;;;;;;;-2.83;98.36;102890.50;5105472;28;20031;-60
2023/01/21 07:10:24;;;;;;;70.90;52.13;;;;;;;-2.86;98.35;102899.97;5099858;28;20512;-61
2023/01/21 07:12:50;;;;;;;75.50;53.17;;;;;;;-2.82;98.40;102892.28;5092146;28;20024;-60
2023/01/21 07:15:16;;;;;;;71.57;51.27;;;;;;;-2.87;98.06;102899.09;5097282;28;20023;-60
2023/01/21 07:17:41;;;;;;;70.93;51.97;;;;;;;-2.85;97.78;102905.22;5100857;28;20028;-60
2023/01/21 07:20:07;;;;;;;74.63;53.07;;;;;;;-2.86;98.80;102913.00;5112103;28;20051;-60
2023/01/21 07:22:33;;;;;;;73.93;52.70;;;;;;;-3.02;98.87;102903.91;5099421;28;20024;-60
2023/01/21 07:24:59;;;;;;;79.43;54.93;;;;;;;-2.90;99.49;102918.97;5072846;28;20012;-60
2023/01/21 07:27:24;;;;;;;79.87;56.27;;;;;;;-2.96;99.19;102917.09;5080141;28;20031;-60
2023/01/21 07:29:50;;;;;;;82.93;56.77;;;;;;;-2.90;99.71;102921.56;5093715;28;20064;-60
2023/01/21 07:32:18;;;;;;;82.70;55.47;;;;;;;-2.89;100.00;102925.94;5112139;28;20034;-60
2023/01/21 07:34:43;;;;;;;77.50;54.27;;;;;;;-2.89;100.00;102925.94;5105080;28;20035;-60
2023/01/21 07:37:09;;;;;;;79.30;54.70;;;;;;;-2.92;99.99;102931.94;5105924;28;20356;-60
2023/01/21 07:39:34;;;;;;;81.10;56.60;;;;;;;-2.88;99.39;102935.50;5103963;28;20023;-61
2023/01/21 07:42:00;;;;;;;80.63;56.67;;;;;;;-2.89;99.96;102944.16;5098712;28;20032;-60
2023/01/21 07:44:25;;;;;;;79.37;55.33;;;;;;;-2.93;100.00;102939.72;5089885;28;20055;-60
2023/01/21 07:46:51;;;;;;;80.67;56.37;;;;;;;-2.97;100.00;102947.44;5108251;28;20426;-60
2023/01/21 07:49:17;;;;;;;82.57;56.53;;;;;;;-2.94;99.61;102946.66;5079463;28;20031;-60
2023/01/21 07:51:44;;;;;;;82.23;56.77;;;;;;;-2.91;99.67;102957.16;5110679;28;20036;-60
2023/01/21 07:54:10;;;;;;;79.90;56.97;;;;;;;-2.90;100.00;102958.03;5099549;28;20023;-60
2023/01/21 07:56:36;;;;;;;85.27;57.63;;;;;;;-2.88;100.00;102969.34;5097432;28;20394;-60
2023/01/21 07:59:01;;;;;;;82.17;57.13;;;;;;;-2.97;99.85;102962.19;5098398;28;20032;-60
2023/01/21 08:01:29;;;;;;;81.40;55.97;;;;;;;-2.88;100.00;102975.44;5083293;28;20068;-60
2023/01/21 08:03:56;;;;;;;79.07;55.33;;;;;;;-2.88;100.00;102980.66;5096202;28;20406;-60
2023/01/21 08:06:21;;;;;;;78.40;56.30;;;;;;;-2.84;100.00;102979.88;5101177;28;20027;-60
2023/01/21 08:08:47;;;;;;;81.03;56.53;;;;;;;-2.79;100.00;102982.63;5106675;28;20477;-60
2023/01/21 08:11:12;;;;;;;81.63;57.80;;;;;;;-2.83;100.00;102984.25;5091639;28;20038;-60
2023/01/21 08:13:38;;;;;;;87.87;59.23;;;;;;;-2.76;100.00;102988.78;5095730;28;20070;-60
2023/01/21 08:16:03;;;;;;;86.60;59.90;;;;;;;-2.64;100.00;103000.38;5100237;28;20053;-61
2023/01/21 08:18:29;;;;;;;94.93;61.00;;;;;;;-2.49;100.00;103005.97;5109285;28;20101;-60
2023/01/21 08:20:55;;;;;;;93.80;62.10;;;;;;;-2.51;100.00;103008.53;5102217;28;20031;-60
2023/01/21 08:23:21;;;;;;;92.83;62.57;;;;;;;-2.45;100.00;103009.53;5108517;28;20467;-60
2023/01/21 08:25:46;;;;;;;92.43;61.20;;;;;;;-2.44;100.00;103006.06;5090844;28;20055;-60
2023/01/21 08:28:13;;;;;;;101.70;63.00;;;;;;;-2.35;100.00;103024.56;5092966;28;20066;-60
2023/01/21 08:30:38;;;;;;;98.33;63.77;;;;;;;-2.33;100.00;103022.88;5100429;28;20119;-60
2023/01/21 08:33:03;;;;;;;100.67;65.37;;;;;;;-2.39;100.00;103020.97;5107178;28;20103;-60
2023/01/21 08:35:29;;;;;;;96.53;64.30;;;;;;;-2.32;100.00;103027.25;5111787;28;20107;-60
2023/01/21 08:37:56;;;;;;;96.70;64.57;;;;;;;-2.30;100.00;103036.84;5114186;28;20035;-61
2023/01/21 08:40:24;;;;;;;102.93;64.83;;;;;;;-2.23;100.00;103037.91;5077030;28;20537;-60
2023/01/21 08:42:50;;;;;;;97.30;63.83;;;;;;;-2.18;100.00;103044.09;5115541;28;20046;-60
2023/01/21 08:45:17;;;;;;;101.90;64.50;;;;;;;-2.25;100.00;103034.38;5095498;28;20032;-60
2023/01/21 08:47:43;;;;;;;104.67;65.83;;;;;;;-2.21;100.00;103033.59;5084917;28;20030;-60
2023/01/21 08:50:09;;;;;;;102.97;65.17;;;;;;;-2.04;100.00;103051.41;5106136;28;20024;-60
2023/01/21 08:52:34;;;;;;;101.17;66.00;;;;;;;-2.00;100.00;103055.81;5102511;28;20050;-61
2023/01/21 08:55:02;;;;;;;101.30;64.37;;;;;;;-1.98;100.00;103069.78;5114418;28;20478;-60
2023/01/21 08:57:27;;;;;;;100.07;64.53;;;;;;;-1.92;100.00;103059.50;5107743;28;20035;-60
2023/01/21 08:59:53;;;;;;;103.63;65.27;;;;;;;-1.98;100.00;103075.00;5080357;28;20032;-60
2023/01/21 09:02:18;;;;;;;104.67;64.27;;;;;;;-1.88;100.00;103069.19;5094561;28;20035;-60
2023/01/21 09:04:45;;;;;;;110.70;66.00;;;;;;;-1.88;100.00;103072.69;5076191;28;20024;-60
2023/01/21 09:07:10;;;;;;;106.30;65.33;;;;;;;-1.86;100.00;103070.97;5094320;28;20028;-60
2023/01/21 09:09:40;;;;;;;107.07;66.83;;;;;;;-1.83;100.00;103075.38;5098126;28;20054;-60
2023/01/21 09:12:08;;;;;;;107.23;67.03;;;;;;;-1.81;100.00;103078.91;5114450;28;20398;-61
2023/01/21 09:14:34;;;;;;;105.63;67.90;;;;;;;-1.78;100.00;103072.88;5114602;28;20435;-60
2023/01/21 09:16:59;;;;;;;105.47;64.93;;;;;;;-1.78;100.00;103078.09;5107746;28;20125;-60
2023/01/21 09:19:25;;;;;;;101.97;62.80;;;;;;;-1.76;100.00;103077.31;5099131;28;20065;-60
2023/01/21 09:21:51;;;;;;;105.33;65.03;;;;;;;-1.83;100.00;103078.84;5094006;28;20035;-60
2023/01/21 09:24:17;;;;;;;108.03;65.67;;;;;;;-1.77;100.00;103083.34;5093592;28;20456;-60
2023/01/21 09:26:42;;;;;;;107.30;65.13;;;;;;;-1.75;100.00;103081.66;5094057;28;20035;-60
2023/01/21 09:29:11;;;;;;;112.27;64.97;;;;;;;-1.78;100.00;103065.94;5093942;28;20528;-60
2023/01/21 09:31:37;;;;;;;105.40;64.10;;;;;;;-1.77;100.00;103079.84;5090567;28;20027;-61
2023/01/21 09:34:04;;;;;;;104.70;63.70;;;;;;;-1.76;100.00;103081.66;5095388;28;20027;-60
2023/01/21 09:36:34;;;;;;;103.80;63.93;;;;;;;-1.75;100.00;103088.63;5113269;28;20089;-60
2023/01/21 09:39:00;;;;;;;114.17;74.27;;;;;;;-1.67;100.00;103089.69;5113854;28;20070;-61
2023/01/21 09:41:41;;;;;;;112.40;66.97;;;;;;;-1.70;100.00;103097.44;5114453;28;20054;-60
2023/01/21 09:44:24;;;;;;;103.77;63.13;;;;;;;-1.60;100.00;103104.63;5114570;28;20023;-60
2023/01/21 09:46:59;;;;;;;107.10;62.13;;;;;;;-1.67;100.00;103115.78;5114254;28;20031;-61
2023/01/21 09:49:32;;;;;;;103.43;64.87;;;;;;;-1.66;100.00;103120.13;5094558;28;20039;-60
2023/01/21 09:52:07;;;;;;;108.47;62.80;;;;;;;-1.61;100.00;103121.13;5114061;28;20032;-60
2023/01/21 09:54:36;;;;;;;104.80;62.97;;;;;;;-1.54;100.00;103120.41;5113507;28;20031;-60
2023/01/21 09:57:13;;;;;;;102.37;60.00;;;;;;;-1.52;100.00;103133.53;5095639;28;20092;-60
2023/01/21 09:59:55;;;;;;;104.70;62.47;;;;;;;-1.60;100.00;103130.72;5095577;28;20027;-60
2023/01/21 10:02:44;;;;;;;104.13;60.70;;;;;;;-1.52;100.00;103137.00;5112527;28;20048;-60
2023/01/21 10:05:32;;;;;;;108.05;61.45;;;;;;;-1.47;100.00;103143.22;5113397;28;20066;-60
2023/01/21 10:08:23;;;;;;;110.53;63.13;;;;;;;-1.47;100.00;103144.91;5113923;28;20027;-60
2023/01/21 10:11:06;;;;;;;109.00;60.60;;;;;;;-1.50;100.00;103142.25;5094929;28;20077;-61
2023/01/21 10:13:57;;;;;;;110.17;63.50;;;;;;;-1.43;100.00;103150.28;5113381;28;20035;-61
2023/01/21 10:16:45;;;;;;;110.87;62.23;;;;;;;-1.34;100.00;103153.94;5095463;28;20106;-60
2023/01/21 10:19:21;;;;;;;114.17;64.63;;;;;;;-1.31;100.00;103156.63;5113086;28;20092;-61
2023/01/21 10:22:02;;;;;;;107.00;61.37;;;;;;;-1.34;100.00;103151.34;5113275;28;20076;-60
2023/01/21 10:24:34;;;;;;;108.97;63.93;;;;;;;-1.35;100.00;103163.50;5113075;28;20019;-60
2023/01/21 10:27:00;;;;;;;105.33;61.37;;;;;;;-1.37;100.00;103144.31;5113346;28;20110;-60
2023/01/21 10:29:26;;;;;;;105.13;62.67;;;;;;;-1.32;100.00;103163.59;5095077;28;20115;-60
2023/01/21 10:32:14;;;;;;;109.00;62.07;;;;;;;-1.21;100.00;103167.28;5113198;28;20106;-60
2023/01/21 10:34:54;;;;;;;108.07;63.40;;;;;;;-1.22;100.00;103156.84;5112998;28;20032;-60
2023/01/21 10:37:23;;;;;;;113.32;61.65;;;;;;;-1.23;100.00;103165.53;5095117;28;20051;-60
2023/01/21 10:40:41;;;;;;;115.10;62.10;;;;;;;-1.17;100.00;103165.66;5112692;28;20031;-60
2023/01/21 10:43:17;;;;;;;111.17;62.93;;;;;;;-1.22;100.00;103154.22;5112840;28;20024;-60
2023/01/21 10:45:57;;;;;;;111.47;62.00;;;;;;;-1.20;100.00;103139.50;5112936;28;20479;-60
2023/01/21 10:48:36;;;;;;;108.85;61.95;;;;;;;-1.01;100.00;103154.69;5094610;28;20030;-60
2023/01/21 10:51:23;;;;;;;107.50;64.30;;;;;;;-0.94;100.00;103147.91;5112787;28;20027;-60
2023/01/21 10:54:03;;;;;;;110.97;63.67;;;;;;;-0.89;100.00;103148.88;5094013;28;20034;-60
2023/01/21 10:56:40;;;;;;;111.13;63.78;;;;;;;-0.78;100.00;103141.25;5113149;28;20020;-60
2023/01/21 10:59:15;;;;;;;108.63;61.20;;;;;;;-0.78;100.00;103142.13;5112336;28;20037;-60
2023/01/21 11:01:59;;;;;;;110.47;62.07;;;;;;;-0.70;100.00;103122.28;5112345;28;20043;-60
2023/01/21 11:04:27;;;;;;;108.03;62.00;;;;;;;-0.52;100.00;103121.78;5093787;28;20073;-60
2023/01/21 11:07:00;;;;;;;109.47;58.90;;;;;;;0.08;100.00;103135.06;5112666;28;20051;-60
2023/01/21 11:09:30;;;;;;;94.80;57.70;;;;;;;0.44;100.00;103134.78;5112264;28;20073;-60
2023/01/21 11:11:56;;;;;;;94.45;57.22;;;;;;;0.79;97.05;103129.19;5112939;28;20472;-60
2023/01/21 11:14:24;;;;;;;89.67;55.53;;;;;;;1.18;94.87;103136.75;5112252;28;20016;-60
2023/01/21 11:16:50;;;;;;;86.40;53.38;;;;;;;1.49;93.16;103132.75;5112252;28;20031;-61
2023/01/21 11:19:29;;;;;;;87.18;52.00;;;;;;;1.87;91.74;103134.91;5111267;28;20019;-61